Time;durP1;ratioP1;P1;durP2;ratioP2;P2;SDS_P1;SDS_P2;PMS_P1;PMS_P2;Temp;Humidity;BMP_temperature;BMP_pressure;BME280_temperature;BME280_humidity;BME280_pressure;Samples;Min_cycle;Max_cycle;Signal;HPM_P1;HPM_P2
2023/08/24 00:00:32;;;;;;;8.20;4.20;;;26.70;79.30;;;;;;4975548;28;20464;-72
2023/08/24 00:03:02;;;;;;;5.37;4.37;;;26.60;79.20;;;;;;4985596;28;20420;-72
2023/08/24 00:05:33;;;;;;;4.30;3.90;;;26.70;79.30;;;;;;4960392;28;21028;-72
2023/08/24 00:07:58;;;;;;;4.47;4.07;;;26.60;79.20;;;;;;4965898;28;20459;-72
2023/08/24 00:10:27;;;;;;;5.40;4.50;;;26.60;79.20;;;;;;4979716;28;20917;-72
2023/08/24 00:12:53;;;;;;;5.67;4.17;;;26.60;79.20;;;;;;4985984;28;20558;-73
2023/08/24 00:15:19;;;;;;;5.13;4.60;;;26.60;79.30;;;;;;4989594;28;21343;-72
2023/08/24 00:17:45;;;;;;;4.67;4.13;;;26.60;79.40;;;;;;5005242;28;21096;-73
2023/08/24 00:20:11;;;;;;;5.10;4.43;;;26.50;79.20;;;;;;4972652;28;20435;-72
2023/08/24 00:22:43;;;;;;;4.50;3.93;;;26.50;79.30;;;;;;4989267;28;20427;-71
2023/08/24 00:25:10;;;;;;;6.03;4.23;;;26.50;79.30;;;;;;5007039;28;20543;-72
2023/08/24 00:27:41;;;;;;;6.50;4.27;;;26.50;79.30;;;;;;4973021;28;20513;-73
2023/08/24 00:30:08;;;;;;;4.80;4.17;;;26.50;79.40;;;;;;4972761;28;20440;-72
2023/08/24 00:32:36;;;;;;;5.53;4.30;;;26.50;79.50;;;;;;4973023;28;20829;-72
2023/08/24 00:35:06;;;;;;;4.83;4.10;;;26.40;79.40;;;;;;4971873;28;20485;-72
2023/08/24 00:37:33;;;;;;;5.07;4.37;;;26.40;79.40;;;;;;4952934;28;20424;-72
2023/08/24 00:40:07;;;;;;;4.30;4.00;;;26.40;79.50;;;;;;4969576;28;20526;-72
2023/08/24 00:42:33;;;;;;;6.90;4.60;;;26.40;79.50;;;;;;4953793;28;20429;-73
2023/08/24 00:44:59;;;;;;;4.97;4.57;;;26.40;79.60;;;;;;4975848;28;20457;-72
2023/08/24 00:47:29;;;;;;;5.10;4.13;;;26.30;79.60;;;;;;4986786;28;20469;-72
2023/08/24 00:49:55;;;;;;;5.00;4.43;;;26.30;79.60;;;;;;4993898;28;20424;-73
2023/08/24 00:52:31;;;;;;;11.30;4.40;;;26.30;79.60;;;;;;4974754;28;20417;-73
2023/08/24 00:54:59;;;;;;;4.60;4.20;;;26.30;79.60;;;;;;4988823;28;20443;-71
2023/08/24 00:57:28;;;;;;;4.30;4.00;;;26.30;79.70;;;;;;5006442;28;20411;-73
2023/08/24 01:00:01;;;;;;;4.93;4.03;;;26.30;79.60;;;;;;4971968;28;20427;-73
2023/08/24 01:02:27;;;;;;;6.63;4.00;;;26.20;79.60;;;;;;4988445;28;20431;-72
2023/08/24 01:04:53;;;;;;;4.20;3.80;;;26.20;79.50;;;;;;4975604;28;21106;-72
2023/08/24 01:07:20;;;;;;;5.57;4.23;;;26.20;79.50;;;;;;4965695;28;20833;-72
2023/08/24 01:09:53;;;;;;;4.87;4.20;;;26.20;80.40;;;;;;4968530;28;20433;-72
2023/08/24 01:12:34;;;;;;;6.03;4.07;;;26.20;79.60;;;;;;4968656;28;20575;-73
2023/08/24 01:15:28;;;;;;;4.40;4.10;;;26.20;79.70;;;;;;4972950;28;20445;-72
2023/08/24 01:18:00;;;;;;;4.77;4.30;;;26.20;79.80;;;;;;4985112;28;20512;-72
2023/08/24 01:20:26;;;;;;;4.20;3.90;;;26.10;79.70;;;;;;4999762;28;20519;-75
2023/08/24 01:23:23;;;;;;;4.60;4.20;;;26.10;79.70;;;;;;4985066;28;20452;-72
2023/08/24 01:26:22;;;;;;;4.83;4.17;;;26.10;79.80;;;;;;4984822;28;20466;-72
2023/08/24 01:28:52;;;;;;;5.83;4.03;;;26.10;79.80;;;;;;4938821;28;20473;-72
2023/08/24 01:31:18;;;;;;;4.67;4.37;;;26.10;79.80;;;;;;4987241;28;20436;-72
2023/08/24 01:33:50;;;;;;;4.37;3.90;;;26.00;79.70;;;;;;4987323;28;20900;-72
2023/08/24 01:36:19;;;;;;;4.30;3.90;;;26.00;79.70;;;;;;4951214;28;20429;-72
2023/08/24 01:39:09;;;;;;;4.87;4.47;;;26.00;79.70;;;;;;4951192;28;21346;-71
2023/08/24 01:41:42;;;;;;;6.53;4.20;;;26.00;79.80;;;;;;4936307;28;20483;-72
2023/08/24 01:44:12;;;;;;;4.27;3.87;;;26.00;79.80;;;;;;4952610;28;20481;-72
2023/08/24 01:46:41;;;;;;;4.90;4.50;;;26.00;79.80;;;;;;4984672;28;20445;-72
2023/08/24 01:49:09;;;;;;;4.90;4.50;;;25.90;79.70;;;;;;4952620;28;20452;-72
2023/08/24 01:51:36;;;;;;;5.17;4.80;;;25.90;79.70;;;;;;4968411;28;20515;-72
2023/08/24 01:54:05;;;;;;;4.60;4.30;;;25.90;79.80;;;;;;4951972;28;20445;-72
2023/08/24 01:56:34;;;;;;;5.53;3.90;;;25.90;79.90;;;;;;4967946;28;20828;-71
2023/08/24 01:59:04;;;;;;;8.13;4.47;;;25.90;79.90;;;;;;4977648;28;20931;-71
2023/08/24 02:01:33;;;;;;;5.30;4.80;;;25.90;80.00;;;;;;4933959;28;20434;-72
2023/08/24 02:03:59;;;;;;;5.70;4.13;;;25.90;80.00;;;;;;4968018;28;20268;-73
2023/08/24 02:06:30;;;;;;;5.00;4.50;;;25.90;80.00;;;;;;4971356;28;20542;-71
2023/08/24 02:08:56;;;;;;;6.13;4.70;;;25.90;80.00;;;;;;4985130;28;21225;-71
2023/08/24 02:11:22;;;;;;;4.10;3.80;;;25.90;80.00;;;;;;4962139;28;20992;-73
2023/08/24 02:13:49;;;;;;;4.70;4.17;;;25.90;80.00;;;;;;4986764;28;20535;-72
2023/08/24 02:16:20;;;;;;;4.80;4.40;;;25.80;79.90;;;;;;4969520;28;20291;-72
2023/08/24 02:18:46;;;;;;;4.37;4.00;;;25.80;79.90;;;;;;4985272;28;20421;-72
2023/08/24 02:21:14;;;;;;;4.83;4.43;;;25.80;80.00;;;;;;4964355;28;20533;-73
2023/08/24 02:23:40;;;;;;;4.60;4.20;;;25.70;79.90;;;;;;4993539;28;20556;-71
2023/08/24 02:26:06;;;;;;;4.63;4.23;;;25.70;79.90;;;;;;4969884;28;20441;-72
2023/08/24 02:28:37;;;;;;;8.10;3.90;;;25.70;79.90;;;;;;4980312;28;20429;-71
2023/08/24 02:31:06;;;;;;;4.90;4.40;;;25.70;79.90;;;;;;4948301;28;20450;-72
2023/08/24 02:33:32;;;;;;;4.97;4.43;;;25.70;80.00;;;;;;4978669;28;20453;-73
2023/08/24 02:35:58;;;;;;;6.40;4.30;;;25.70;80.00;;;;;;4984721;28;20420;-72
2023/08/24 02:38:27;;;;;;;4.30;3.90;;;25.70;80.00;;;;;;4951280;28;20448;-72
2023/08/24 02:41:09;;;;;;;4.90;4.10;;;25.70;80.10;;;;;;4983385;28;20445;-74
2023/08/24 02:43:39;;;;;;;5.93;4.63;;;25.60;80.00;;;;;;4967928;28;20467;-72
2023/08/24 02:46:08;;;;;;;4.40;3.70;;;25.60;80.00;;;;;;4996341;28;20425;-71
2023/08/24 02:48:36;;;;;;;5.00;4.50;;;25.60;80.10;;;;;;4952026;28;20428;-73
2023/08/24 02:51:06;;;;;;;6.90;4.60;;;25.60;80.10;;;;;;4951778;28;20821;-72
2023/08/24 02:53:32;;;;;;;5.87;4.73;;;25.60;80.00;;;;;;4984529;28;20567;-72
2023/08/24 02:55:58;;;;;;;4.87;4.30;;;25.60;80.10;;;;;;4949054;28;20437;-71
2023/08/24 02:58:27;;;;;;;5.30;4.90;;;25.60;80.10;;;;;;4984827;28;20456;-71
2023/08/24 03:00:53;;;;;;;5.30;4.80;;;25.60;80.20;;;;;;4970165;28;20400;-72
2023/08/24 03:03:22;;;;;;;5.20;4.10;;;25.50;80.10;;;;;;4986041;28;20426;-71
2023/08/24 03:05:58;;;;;;;4.60;4.20;;;25.50;80.10;;;;;;4986734;28;20752;-72
2023/08/24 03:08:30;;;;;;;4.20;3.80;;;25.50;80.00;;;;;;4953312;28;20446;-71
2023/08/24 03:11:06;;;;;;;4.80;4.50;;;25.50;80.10;;;;;;4952130;28;20985;-74
2023/08/24 03:13:40;;;;;;;5.80;4.77;;;25.50;80.10;;;;;;4963672;28;20438;-72
2023/08/24 03:16:08;;;;;;;7.10;5.10;;;25.50;80.20;;;;;;4979662;28;20444;-72
2023/08/24 03:18:36;;;;;;;5.60;4.90;;;25.40;80.20;;;;;;4967465;28;21172;-71
2023/08/24 03:21:07;;;;;;;5.43;4.90;;;25.40;80.20;;;;;;4951280;28;20947;-72
2023/08/24 03:23:36;;;;;;;5.37;4.87;;;25.40;80.30;;;;;;4982649;28;20478;-72
2023/08/24 03:26:03;;;;;;;5.20;4.70;;;25.40;80.30;;;;;;4987470;28;20453;-72
2023/08/24 03:28:29;;;;;;;5.53;4.97;;;25.40;80.30;;;;;;4994451;28;20431;-72
2023/08/24 03:31:00;;;;;;;4.83;4.43;;;25.40;80.30;;;;;;5001998;28;20409;-72
2023/08/24 03:33:27;;;;;;;5.33;4.30;;;25.40;80.40;;;;;;4969009;28;20821;-73
2023/08/24 03:35:54;;;;;;;4.20;3.87;;;25.30;80.30;;;;;;5002021;28;20406;-72
2023/08/24 03:38:20;;;;;;;5.00;4.50;;;25.30;80.40;;;;;;4985725;28;20425;-72
2023/08/24 03:40:48;;;;;;;4.60;4.20;;;25.40;80.50;;;;;;5002207;28;20424;-73
2023/08/24 03:43:14;;;;;;;5.70;5.00;;;25.30;80.50;;;;;;4985682;28;20434;-71
2023/08/24 03:45:42;;;;;;;5.50;5.10;;;25.30;80.50;;;;;;4991116;28;20495;-72
2023/08/24 03:48:08;;;;;;;7.13;4.50;;;25.30;80.60;;;;;;4969056;28;20575;-71
2023/08/24 03:50:36;;;;;;;4.90;4.47;;;25.30;80.60;;;;;;4955244;28;21300;-72
2023/08/24 03:53:03;;;;;;;5.23;4.73;;;25.30;80.60;;;;;;4989164;28;20420;-72
2023/08/24 03:55:29;;;;;;;4.77;4.37;;;25.20;80.60;;;;;;4989601;28;20465;-71
2023/08/24 03:57:58;;;;;;;5.00;4.50;;;25.30;80.80;;;;;;4989029;28;20467;-72
2023/08/24 04:00:26;;;;;;;5.23;4.73;;;25.20;80.70;;;;;;4988452;28;20790;-73
2023/08/24 04:02:54;;;;;;;5.23;4.93;;;25.30;80.80;;;;;;4985319;28;20436;-72
2023/08/24 04:05:24;;;;;;;4.63;4.23;;;25.20;80.70;;;;;;4969546;28;20451;-74
2023/08/24 04:07:53;;;;;;;4.63;4.13;;;25.20;80.80;;;;;;4970076;28;20462;-74
2023/08/24 04:10:19;;;;;;;4.87;4.47;;;25.20;80.90;;;;;;4969963;28;20447;-73
2023/08/24 04:12:47;;;;;;;4.60;4.30;;;25.20;80.90;;;;;;4956803;28;20424;-73
2023/08/24 04:15:16;;;;;;;5.00;4.60;;;25.20;81.00;;;;;;4973496;28;20440;-72
2023/08/24 04:17:44;;;;;;;5.20;4.80;;;25.20;81.10;;;;;;4958506;28;20537;-72
2023/08/24 04:20:13;;;;;;;5.23;4.73;;;25.20;81.20;;;;;;4967175;28;20442;-74
2023/08/24 04:22:39;;;;;;;5.73;5.23;;;25.10;81.10;;;;;;4968679;28;20438;-72
2023/08/24 04:25:06;;;;;;;5.10;4.70;;;25.20;81.40;;;;;;4985508;28;20463;-72
2023/08/24 04:27:34;;;;;;;6.20;4.67;;;25.10;81.40;;;;;;4985302;28;20476;-72
2023/08/24 04:30:00;;;;;;;5.47;4.80;;;25.10;81.40;;;;;;4969181;28;20496;-72
2023/08/24 04:32:34;;;;;;;5.13;4.73;;;25.10;81.50;;;;;;4986851;28;20409;-72
2023/08/24 04:35:00;;;;;;;7.23;4.97;;;25.10;81.70;;;;;;4990749;28;20511;-71
2023/08/24 04:37:26;;;;;;;4.73;4.40;;;25.10;81.70;;;;;;5004571;28;20405;-72
2023/08/24 04:39:53;;;;;;;5.63;4.90;;;25.10;81.90;;;;;;4989488;28;20464;-72
2023/08/24 04:42:21;;;;;;;5.63;5.07;;;25.10;81.90;;;;;;4986692;28;20416;-74
2023/08/24 04:44:47;;;;;;;5.13;4.63;;;25.00;82.00;;;;;;4936860;28;20460;-72
2023/08/24 04:47:13;;;;;;;7.20;5.27;;;25.00;82.20;;;;;;4967571;28;20258;-73
2023/08/24 04:49:41;;;;;;;5.33;4.70;;;25.00;82.30;;;;;;4985307;28;20471;-73
2023/08/24 04:52:09;;;;;;;4.83;4.43;;;25.00;82.40;;;;;;4967371;28;20198;-73
2023/08/24 04:54:35;;;;;;;4.50;4.10;;;25.00;82.50;;;;;;4983470;28;21030;-74
2023/08/24 04:57:02;;;;;;;5.70;5.00;;;25.00;82.70;;;;;;4985396;28;20433;-74
2023/08/24 04:59:30;;;;;;;5.37;4.83;;;25.00;82.80;;;;;;4967594;28;20434;-74
2023/08/24 05:01:56;;;;;;;5.37;4.97;;;25.00;82.90;;;;;;4936148;28;20439;-74
2023/08/24 05:04:22;;;;;;;6.17;5.57;;;25.00;83.00;;;;;;4985411;28;20444;-73
2023/08/24 05:06:48;;;;;;;5.10;4.60;;;25.00;83.10;;;;;;4984750;28;20464;-73
2023/08/24 05:09:14;;;;;;;5.40;4.90;;;25.00;83.10;;;;;;5003719;28;20462;-73
2023/08/24 05:11:40;;;;;;;11.13;5.07;;;24.90;83.20;;;;;;4987585;28;20412;-76
2023/08/24 05:14:06;;;;;;;6.13;5.20;;;25.00;83.50;;;;;;4996466;28;20503;-77
2023/08/24 05:16:32;;;;;;;8.60;6.33;;;24.90;83.60;;;;;;4967199;28;21001;-75
2023/08/24 05:19:03;;;;;;;5.23;4.50;;;24.90;83.60;;;;;;4984145;28;20412;-75
2023/08/24 05:21:31;;;;;;;6.17;5.67;;;24.90;83.60;;;;;;4952352;28;20972;-75
2023/08/24 05:23:57;;;;;;;9.17;5.23;;;24.90;83.70;;;;;;4951076;28;21061;-75
2023/08/24 05:26:25;;;;;;;5.70;5.13;;;24.90;83.70;;;;;;4959864;28;20488;-75
2023/08/24 05:28:53;;;;;;;5.90;5.30;;;24.90;83.80;;;;;;4979045;28;20439;-75
2023/08/24 05:31:19;;;;;;;5.20;4.70;;;24.90;83.80;;;;;;4986333;28;20412;-75
2023/08/24 05:33:48;;;;;;;5.33;4.70;;;24.90;83.90;;;;;;4975523;28;20518;-75
2023/08/24 05:36:16;;;;;;;5.67;5.27;;;24.90;83.90;;;;;;4967018;28;20435;-76
2023/08/24 05:38:46;;;;;;;5.13;4.73;;;24.80;84.00;;;;;;4951115;28;20456;-76
2023/08/24 05:41:13;;;;;;;6.80;6.30;;;24.80;84.10;;;;;;4967537;28;20457;-75
2023/08/24 05:43:41;;;;;;;7.00;5.03;;;24.90;84.20;;;;;;4982977;28;20828;-75
2023/08/24 05:46:11;;;;;;;4.77;4.30;;;24.80;84.10;;;;;;4999251;22;20500;-75
2023/08/24 05:48:39;;;;;;;5.40;4.90;;;24.80;84.20;;;;;;4979666;28;20955;-75
2023/08/24 05:51:07;;;;;;;5.73;5.10;;;24.80;84.30;;;;;;5005403;28;20404;-74
2023/08/24 05:53:33;;;;;;;5.43;5.00;;;24.80;84.30;;;;;;5005246;28;20621;-75
2023/08/24 05:56:02;;;;;;;6.23;5.00;;;24.80;84.40;;;;;;4999557;28;20892;-76
2023/08/24 05:58:28;;;;;;;6.70;5.17;;;24.80;84.50;;;;;;4977638;28;20506;-75
2023/08/24 06:00:58;;;;;;;6.13;4.90;;;24.80;84.60;;;;;;4992844;28;20983;-75
2023/08/24 06:03:25;;;;;;;6.00;5.13;;;24.80;84.70;;;;;;5012828;28;20928;-76
2023/08/24 06:05:52;;;;;;;5.33;4.50;;;24.80;84.90;;;;;;4988793;28;20430;-75
2023/08/24 06:08:21;;;;;;;8.17;5.40;;;24.80;84.90;;;;;;5022266;28;20508;-76
2023/08/24 06:10:47;;;;;;;6.30;5.70;;;24.70;84.90;;;;;;4985972;28;20440;-76
2023/08/24 06:13:13;;;;;;;5.77;5.17;;;24.70;85.10;;;;;;4985917;28;20489;-75
2023/08/24 06:15:39;;;;;;;5.27;4.77;;;24.70;85.10;;;;;;4957328;28;20956;-75
2023/08/24 06:18:05;;;;;;;5.23;4.80;;;24.70;85.20;;;;;;5002189;28;20408;-75
2023/08/24 06:20:34;;;;;;;5.63;5.13;;;24.70;85.30;;;;;;5004491;28;20216;-76
2023/08/24 06:23:02;;;;;;;5.90;5.30;;;24.70;85.30;;;;;;5022427;28;20511;-75
2023/08/24 06:25:29;;;;;;;5.73;5.20;;;24.70;85.30;;;;;;4988719;28;20959;-75
2023/08/24 06:27:54;;;;;;;6.30;5.37;;;24.70;85.30;;;;;;5004925;28;20554;-75
2023/08/24 06:30:25;;;;;;;7.20;5.53;;;24.70;85.40;;;;;;5002519;28;20433;-75
2023/08/24 06:32:51;;;;;;;5.30;4.80;;;24.70;85.40;;;;;;5008059;28;20504;-76
2023/08/24 06:35:18;;;;;;;7.27;5.70;;;24.70;85.40;;;;;;5004912;28;20455;-76
2023/08/24 06:37:44;;;;;;;5.97;5.47;;;24.60;85.40;;;;;;5023168;28;20514;-76
2023/08/24 06:40:11;;;;;;;5.80;5.30;;;24.70;85.50;;;;;;4989274;28;20462;-76
2023/08/24 06:42:37;;;;;;;5.97;5.40;;;24.70;85.60;;;;;;5023730;28;20435;-75
2023/08/24 06:45:03;;;;;;;6.10;5.23;;;24.70;85.70;;;;;;5002389;28;20831;-75
2023/08/24 06:47:29;;;;;;;6.57;5.60;;;24.60;85.60;;;;;;5024352;28;20459;-76
2023/08/24 06:49:55;;;;;;;5.77;5.27;;;24.60;85.60;;;;;;5006141;28;20518;-76
2023/08/24 06:52:22;;;;;;;5.47;4.97;;;24.60;85.60;;;;;;5006629;28;20506;-75
2023/08/24 06:54:53;;;;;;;5.63;4.77;;;24.60;85.60;;;;;;5015807;28;20204;-73
2023/08/24 06:57:19;;;;;;;5.53;5.10;;;24.60;86.40;;;;;;5024451;28;20412;-75
2023/08/24 06:59:45;;;;;;;5.33;4.87;;;24.60;85.60;;;;;;5004974;28;21169;-75
2023/08/24 07:02:10;;;;;;;5.23;4.73;;;24.60;85.60;;;;;;4988197;28;20463;-75
2023/08/24 07:04:39;;;;;;;5.37;4.87;;;24.60;85.50;;;;;;5003530;28;21041;-75
2023/08/24 07:07:07;;;;;;;5.23;4.73;;;24.60;85.40;;;;;;5004515;28;20907;-75
2023/08/24 07:09:34;;;;;;;5.30;4.80;;;24.60;85.30;;;;;;4954961;28;20438;-75
2023/08/24 07:12:06;;;;;;;5.80;5.30;;;24.60;85.30;;;;;;5002862;28;20404;-73
2023/08/24 07:14:33;;;;;;;5.27;4.87;;;24.60;85.10;;;;;;4968173;28;20460;-75
2023/08/24 07:16:59;;;;;;;5.00;4.50;;;24.60;85.10;;;;;;5019071;28;20447;-74
2023/08/24 07:19:26;;;;;;;5.27;4.77;;;24.60;85.00;;;;;;5021522;28;20439;-74
2023/08/24 07:21:52;;;;;;;5.07;4.57;;;24.60;85.10;;;;;;5022112;28;21039;-74
2023/08/24 07:24:20;;;;;;;4.90;4.50;;;24.60;85.10;;;;;;5007131;28;20440;-74
2023/08/24 07:26:50;;;;;;;4.73;4.00;;;24.60;85.20;;;;;;5028344;28;20542;-76
2023/08/24 07:29:18;;;;;;;5.70;4.77;;;24.60;85.20;;;;;;5008967;28;20916;-74
2023/08/24 07:31:49;;;;;;;6.20;4.57;;;24.60;85.10;;;;;;4995405;28;20814;-76
2023/08/24 07:34:15;;;;;;;5.07;4.67;;;24.60;85.00;;;;;;5011846;28;20444;-75
2023/08/24 07:36:42;;;;;;;4.63;4.23;;;24.70;85.00;;;;;;5002838;28;20451;-75
2023/08/24 07:39:08;;;;;;;5.00;4.50;;;24.70;85.10;;;;;;5014494;28;20420;-74
2023/08/24 07:41:34;;;;;;;5.10;4.70;;;24.70;85.20;;;;;;5005984;28;20451;-75
2023/08/24 07:44:00;;;;;;;4.50;4.10;;;24.70;85.40;;;;;;4987344;28;20941;-76
2023/08/24 07:46:28;;;;;;;5.40;4.70;;;24.70;85.60;;;;;;4986533;28;20549;-76
2023/08/24 07:48:57;;;;;;;4.43;4.13;;;24.70;85.60;;;;;;5007828;28;20461;-76
2023/08/24 07:51:25;;;;;;;5.10;4.60;;;24.70;85.60;;;;;;5024158;28;20434;-76
2023/08/24 07:53:54;;;;;;;5.40;4.90;;;24.70;85.80;;;;;;5007184;28;20476;-75
2023/08/24 07:56:20;;;;;;;5.40;4.27;;;24.70;85.80;;;;;;5007598;28;20455;-76
2023/08/24 07:58:46;;;;;;;4.63;4.23;;;24.70;85.70;;;;;;4988582;28;20439;-75
2023/08/24 08:01:14;;;;;;;5.27;4.73;;;24.70;85.70;;;;;;4987930;28;20469;-76
2023/08/24 08:03:40;;;;;;;5.53;4.93;;;24.70;85.80;;;;;;4987674;28;20451;-75
2023/08/24 08:06:09;;;;;;;5.13;4.70;;;24.70;86.00;;;;;;4993866;28;20434;-75
2023/08/24 08:08:35;;;;;;;5.70;4.77;;;24.70;85.80;;;;;;4975081;28;21093;-74
2023/08/24 08:11:02;;;;;;;4.73;4.33;;;24.70;85.80;;;;;;5006965;28;20508;-74
2023/08/24 08:13:29;;;;;;;5.60;5.10;;;24.70;85.90;;;;;;5006955;28;20412;-76
2023/08/24 08:16:06;;;;;;;6.23;5.70;;;24.70;85.90;;;;;;5006503;28;20442;-75
2023/08/24 08:18:33;;;;;;;5.00;4.60;;;24.70;85.80;;;;;;5024146;28;20405;-75
2023/08/24 08:21:02;;;;;;;4.77;4.13;;;24.70;85.80;;;;;;4988178;28;20431;-76
2023/08/24 08:23:31;;;;;;;5.13;4.73;;;24.70;85.80;;;;;;5006315;28;20441;-76
2023/08/24 08:25:57;;;;;;;4.97;4.60;;;24.70;85.90;;;;;;5007214;28;20442;-76
2023/08/24 08:28:23;;;;;;;5.90;5.13;;;24.70;86.00;;;;;;5024559;28;20454;-75
2023/08/24 08:30:49;;;;;;;5.73;5.30;;;24.70;85.90;;;;;;5007308;28;21031;-75
2023/08/24 08:33:15;;;;;;;5.60;5.10;;;24.70;85.90;;;;;;5007044;28;20845;-76
2023/08/24 08:35:41;;;;;;;6.43;4.93;;;24.70;85.90;;;;;;5023463;28;20432;-76
2023/08/24 08:38:07;;;;;;;4.97;4.57;;;24.70;85.90;;;;;;4972531;28;20935;-75
2023/08/24 08:40:37;;;;;;;4.90;4.40;;;24.80;85.90;;;;;;5003985;28;20443;-74
2023/08/24 08:43:03;;;;;;;8.07;4.57;;;24.80;85.80;;;;;;4974336;28;20446;-76
2023/08/24 08:45:29;;;;;;;5.20;4.80;;;24.80;86.00;;;;;;4990152;28;20980;-76
2023/08/24 08:48:00;;;;;;;5.50;5.10;;;24.80;86.00;;;;;;5024504;28;20847;-75
2023/08/24 08:50:26;;;;;;;5.17;4.77;;;24.90;86.30;;;;;;5006057;28;20424;-75
2023/08/24 08:52:55;;;;;;;5.07;4.77;;;24.80;86.20;;;;;;5024047;28;20418;-76
2023/08/24 08:55:22;;;;;;;6.10;5.60;;;24.90;86.20;;;;;;5004940;28;20592;-75
2023/08/24 08:57:49;;;;;;;5.30;4.90;;;24.90;86.20;;;;;;4990106;28;21125;-76
2023/08/24 09:00:18;;;;;;;5.23;4.70;;;24.90;86.20;;;;;;5004748;28;20951;-76
2023/08/24 09:02:45;;;;;;;5.03;4.63;;;24.90;86.10;;;;;;4994145;28;20509;-76
2023/08/24 09:05:13;;;;;;;5.00;4.60;;;24.90;86.30;;;;;;5024453;28;20478;-74
2023/08/24 09:07:41;;;;;;;5.60;4.63;;;24.90;86.10;;;;;;5020990;28;21122;-75
2023/08/24 09:10:10;;;;;;;5.33;4.37;;;24.90;86.60;;;;;;4978180;28;20451;-76
2023/08/24 09:12:36;;;;;;;6.10;4.47;;;25.00;86.50;;;;;;4987161;28;20436;-75
2023/08/24 09:15:08;;;;;;;4.50;4.10;;;25.00;86.50;;;;;;4996023;28;20467;-75
2023/08/24 09:17:38;;;;;;;5.30;4.73;;;25.00;86.50;;;;;;5002612;28;20466;-75
2023/08/24 09:20:08;;;;;;;5.57;5.00;;;25.00;86.60;;;;;;4985667;28;20424;-75
2023/08/24 09:22:39;;;;;;;6.20;5.20;;;25.00;86.60;;;;;;4986488;28;20515;-75
2023/08/24 09:25:06;;;;;;;6.03;4.60;;;25.00;86.80;;;;;;4985992;28;20941;-75
2023/08/24 09:27:32;;;;;;;4.50;4.20;;;25.10;86.80;;;;;;4981459;28;20463;-75
2023/08/24 09:29:58;;;;;;;4.70;4.30;;;25.10;86.70;;;;;;5013363;28;20921;-75
2023/08/24 09:32:32;;;;;;;4.60;4.30;;;25.10;86.90;;;;;;4970137;28;20463;-75
2023/08/24 09:35:08;;;;;;;4.97;4.57;;;25.10;86.80;;;;;;4985829;28;20467;-75
2023/08/24 09:37:35;;;;;;;4.80;4.40;;;25.10;86.70;;;;;;4985430;28;20548;-75
2023/08/24 09:40:07;;;;;;;5.00;4.47;;;25.20;86.90;;;;;;5003653;28;20953;-75
2023/08/24 09:42:43;;;;;;;5.13;4.73;;;25.20;86.70;;;;;;5003841;28;20539;-75
2023/08/24 09:45:13;;;;;;;4.80;4.40;;;25.20;87.00;;;;;;4994829;28;20462;-74
2023/08/24 09:47:41;;;;;;;4.97;4.50;;;25.20;87.10;;;;;;5004325;28;20970;-75
2023/08/24 09:50:09;;;;;;;5.03;4.73;;;25.20;87.20;;;;;;4992513;28;20930;-75
2023/08/24 09:52:43;;;;;;;5.60;5.10;;;25.20;87.30;;;;;;4969421;28;20440;-75
2023/08/24 09:55:11;;;;;;;5.33;4.93;;;25.30;87.40;;;;;;4970143;28;20454;-75
2023/08/24 09:57:41;;;;;;;4.60;4.00;;;25.30;87.30;;;;;;4985976;28;20453;-75
2023/08/24 10:00:14;;;;;;;4.87;4.53;;;25.30;87.20;;;;;;4985890;28;20470;-75
2023/08/24 10:02:53;;;;;;;4.83;4.43;;;25.30;87.20;;;;;;5005202;28;20431;-75
2023/08/24 10:05:24;;;;;;;5.60;5.20;;;25.40;87.90;;;;;;5022690;28;20826;-75
2023/08/24 10:07:56;;;;;;;5.10;4.70;;;25.40;87.10;;;;;;5022547;28;20455;-75
2023/08/24 10:10:29;;;;;;;5.33;4.80;;;25.40;87.10;;;;;;5005166;28;20438;-75
2023/08/24 10:13:08;;;;;;;5.30;4.90;;;25.40;87.00;;;;;;4978166;28;20513;-75
2023/08/24 10:15:37;;;;;;;4.73;4.33;;;25.40;87.10;;;;;;4995237;28;20835;-75
2023/08/24 10:18:05;;;;;;;4.53;4.13;;;25.40;86.90;;;;;;4973118;28;20893;-75
2023/08/24 10:20:33;;;;;;;4.80;4.17;;;25.50;87.10;;;;;;5023073;28;20767;-75
2023/08/24 10:23:01;;;;;;;8.03;5.70;;;25.50;87.10;;;;;;5005114;28;20826;-75
2023/08/24 10:25:27;;;;;;;4.60;4.30;;;25.50;87.10;;;;;;5023440;28;20983;-75
2023/08/24 10:27:54;;;;;;;5.03;4.60;;;25.50;87.10;;;;;;4989072;28;20932;-75
2023/08/24 10:30:25;;;;;;;5.63;5.17;;;25.60;87.10;;;;;;5006910;28;20420;-75
2023/08/24 10:32:53;;;;;;;7.73;4.90;;;25.60;87.10;;;;;;4972505;28;20534;-74
2023/08/24 10:35:22;;;;;;;5.00;4.60;;;25.60;87.00;;;;;;5003716;28;20944;-75
2023/08/24 10:37:48;;;;;;;5.57;4.60;;;25.60;87.80;;;;;;5022326;28;20546;-75
2023/08/24 10:40:14;;;;;;;5.33;4.90;;;25.70;87.20;;;;;;5004829;28;20887;-78
2023/08/24 10:42:46;;;;;;;5.40;4.90;;;25.70;87.20;;;;;;5005569;28;20443;-76
2023/08/24 10:45:17;;;;;;;4.90;4.50;;;25.70;87.10;;;;;;5018816;28;21249;-76
2023/08/24 10:47:45;;;;;;;5.03;4.70;;;25.70;87.20;;;;;;4995716;28;20545;-75
2023/08/24 10:50:17;;;;;;;5.10;4.80;;;25.70;87.30;;;;;;5004704;28;20432;-75
2023/08/24 10:52:44;;;;;;;5.53;5.03;;;25.70;87.10;;;;;;5003079;28;20583;-75
2023/08/24 10:55:26;;;;;;;5.60;5.10;;;25.80;87.30;;;;;;5003664;28;20455;-75
2023/08/24 10:57:59;;;;;;;5.70;5.30;;;25.80;87.20;;;;;;4988101;28;20459;-74
2023/08/24 11:00:32;;;;;;;5.27;4.97;;;25.80;87.20;;;;;;5007646;28;20419;-75
2023/08/24 11:03:01;;;;;;;5.43;5.03;;;25.80;87.10;;;;;;4996334;28;20421;-75
2023/08/24 11:05:35;;;;;;;6.60;4.83;;;25.80;87.10;;;;;;4980964;28;20445;-75
2023/08/24 11:08:02;;;;;;;5.40;5.00;;;25.90;87.30;;;;;;4986154;28;20459;-73
2023/08/24 11:10:33;;;;;;;5.23;4.83;;;25.90;87.20;;;;;;5003806;28;20492;-75
2023/08/24 11:13:06;;;;;;;5.10;4.70;;;25.90;87.20;;;;;;4982124;28;20795;-75
2023/08/24 11:15:34;;;;;;;5.67;5.17;;;25.90;87.20;;;;;;4977653;28;20903;-74
2023/08/24 11:18:18;;;;;;;5.23;4.77;;;25.90;87.10;;;;;;4967576;28;21289;-75
2023/08/24 11:20:54;;;;;;;5.77;5.27;;;26.00;87.30;;;;;;5003872;28;20949;-74
2023/08/24 11:23:23;;;;;;;5.60;5.10;;;26.00;87.30;;;;;;4987898;28;20426;-74
2023/08/24 11:25:57;;;;;;;5.67;5.20;;;26.00;87.30;;;;;;4993311;28;20661;-74
2023/08/24 11:28:27;;;;;;;5.50;5.00;;;26.00;88.00;;;;;;5004609;28;20840;-74
2023/08/24 11:30:57;;;;;;;5.47;5.07;;;26.00;87.20;;;;;;5008826;28;20486;-74
2023/08/24 11:33:32;;;;;;;5.57;5.17;;;26.00;87.20;;;;;;4979016;28;20439;-74
2023/08/24 11:35:59;;;;;;;5.40;4.97;;;26.10;87.30;;;;;;4978137;28;20609;-74
2023/08/24 11:38:34;;;;;;;5.17;4.77;;;26.10;87.20;;;;;;4997121;28;20564;-74
2023/08/24 11:41:11;;;;;;;5.30;4.90;;;26.10;87.30;;;;;;4995705;28;21161;-74
2023/08/24 11:43:39;;;;;;;5.87;5.47;;;26.10;87.20;;;;;;5007244;28;21657;-74
2023/08/24 11:46:06;;;;;;;6.40;5.80;;;26.10;87.20;;;;;;4991620;28;20436;-74
2023/08/24 11:48:36;;;;;;;5.03;4.70;;;26.10;87.20;;;;;;4968366;28;20458;-74
2023/08/24 11:51:09;;;;;;;5.10;4.70;;;26.20;87.10;;;;;;4997871;28;20830;-74
2023/08/24 11:53:43;;;;;;;5.83;5.33;;;26.20;87.30;;;;;;4998885;28;20439;-74
2023/08/24 11:56:12;;;;;;;5.53;5.13;;;26.20;87.20;;;;;;4973043;28;20427;-74
2023/08/24 11:58:41;;;;;;;5.77;5.37;;;26.20;87.30;;;;;;4991352;28;20423;-74
2023/08/24 12:01:08;;;;;;;5.60;5.20;;;26.20;87.30;;;;;;4995356;28;20503;-74
2023/08/24 12:03:38;;;;;;;5.83;5.43;;;26.20;87.30;;;;;;4993785;28;20471;-74
2023/08/24 12:06:11;;;;;;;6.50;6.00;;;26.20;87.30;;;;;;5001222;28;20535;-74
2023/08/24 12:08:42;;;;;;;6.40;5.80;;;26.30;87.30;;;;;;4983675;28;20534;-74
2023/08/24 12:11:17;;;;;;;6.10;5.60;;;26.30;87.30;;;;;;4971253;28;21095;-74
2023/08/24 12:13:50;;;;;;;6.07;5.47;;;26.30;87.30;;;;;;4989969;28;20809;-74
2023/08/24 12:16:23;;;;;;;8.00;5.87;;;26.30;87.30;;;;;;4995315;28;20419;-74
2023/08/24 12:18:55;;;;;;;5.43;5.03;;;26.30;87.30;;;;;;5019584;28;20507;-74
2023/08/24 12:21:24;;;;;;;6.70;6.17;;;26.30;87.20;;;;;;4989001;28;20439;-74
2023/08/24 12:24:00;;;;;;;6.40;5.80;;;26.30;87.20;;;;;;4980369;28;20872;-74
2023/08/24 12:26:27;;;;;;;5.60;4.90;;;26.40;87.30;;;;;;4988221;28;20494;-74
2023/08/24 12:29:00;;;;;;;5.77;5.27;;;26.40;87.30;;;;;;5010304;28;20444;-74
2023/08/24 12:31:28;;;;;;;5.50;5.10;;;26.40;87.30;;;;;;5000681;28;20474;-74
2023/08/24 12:34:04;;;;;;;6.00;5.50;;;26.40;87.30;;;;;;5010074;28;20457;-74
2023/08/24 12:36:32;;;;;;;6.93;5.70;;;26.40;87.50;;;;;;5015612;28;20415;-74
2023/08/24 12:38:59;;;;;;;5.20;4.80;;;26.40;87.50;;;;;;4982962;28;20531;-74
2023/08/24 12:41:25;;;;;;;5.30;4.80;;;26.40;87.60;;;;;;5016685;28;20439;-74
2023/08/24 12:43:52;;;;;;;5.67;5.17;;;26.40;87.60;;;;;;5001235;28;21435;-74
2023/08/24 12:46:18;;;;;;;6.10;5.60;;;26.40;87.70;;;;;;4981133;28;21271;-74
2023/08/24 12:48:44;;;;;;;5.73;5.23;;;26.40;87.90;;;;;;5003928;28;20427;-74
2023/08/24 12:51:10;;;;;;;5.83;5.43;;;26.40;87.80;;;;;;4989614;28;20553;-74
2023/08/24 12:53:38;;;;;;;6.20;5.60;;;26.40;87.90;;;;;;5004425;28;21027;-74
2023/08/24 12:56:06;;;;;;;6.33;5.70;;;26.50;88.10;;;;;;4966475;28;20538;-74